Terminal Aerodrome Forecast
Issued by NWS

Home | Current Version | Previous Version | Graphics & Text | Print | Product List | Glossary On
Versions: 1 2 3 4 5 6 7 8 9 10 11 12 13 14 15 16 17
950
FTUS43 KMPX 101141
TAFAXN
TAF
KAXN 101141Z 1012/1112 33010KT P6SM SCT120
     FM101300 33010KT P6SM BKN015
     FM101800 32008KT P6SM SCT015 BKN090
     FM110100 26007KT P6SM OVC050
      TEMPO 1103/1106 22008KT 3SM -SN OVC025=

USA.gov is the U.S. government's official web portal to all federal, state and local government web resources and services.